createdAt,value
2023-02-11T00:02:29.090Z,17.90
2023-02-11T00:04:57.977Z,14.40
2023-02-11T00:07:26.554Z,14.40
2023-02-11T00:09:57.306Z,21.10
2023-02-11T00:12:26.200Z,15.80
2023-02-11T00:14:54.676Z,15.40
2023-02-11T00:17:23.128Z,17.40
2023-02-11T00:19:52.107Z,12.40
2023-02-11T00:22:20.537Z,15.80
2023-02-11T00:24:49.461Z,11.00
2023-02-11T00:27:18.252Z,19.00
2023-02-11T00:29:46.912Z,13.60
2023-02-11T00:32:15.581Z,12.30
2023-02-11T00:34:44.208Z,14.90
2023-02-11T00:37:13.133Z,23.20
2023-02-11T00:39:42.320Z,17.10
2023-02-11T00:42:14.219Z,11.60
2023-02-11T00:44:43.378Z,16.30
2023-02-11T00:47:12.617Z,16.20
2023-02-11T00:49:41.070Z,16.70
2023-02-11T00:52:10.829Z,15.50
2023-02-11T00:54:39.544Z,11.90
2023-02-11T00:57:07.976Z,12.70
2023-02-11T00:59:36.688Z,13.40
2023-02-11T01:02:05.158Z,16.70
2023-02-11T01:04:33.586Z,11.00
2023-02-11T01:07:02.235Z,13.40
2023-02-11T01:09:30.808Z,16.00
2023-02-11T01:11:59.700Z,16.30
2023-02-11T01:14:28.334Z,14.80
2023-02-11T01:16:56.766Z,14.30
2023-02-11T01:19:25.207Z,13.30
2023-02-11T01:21:53.907Z,20.00
2023-02-11T01:24:22.997Z,10.60
2023-02-11T01:26:51.523Z,18.10
2023-02-11T01:29:20.213Z,13.40
2023-02-11T01:31:49.093Z,14.80
2023-02-11T01:34:18.129Z,15.60
2023-02-11T01:36:46.819Z,14.40
2023-02-11T01:39:15.564Z,14.90
2023-02-11T01:41:46.501Z,11.00
2023-02-11T01:44:31.048Z,14.40
2023-02-11T01:49:30.746Z,12.50
2023-02-11T01:52:04.133Z,13.00
2023-02-11T01:55:05.076Z,14.20
2023-02-11T01:57:37.419Z,10.50
2023-02-11T02:00:13.511Z,12.50
2023-02-11T02:02:47.022Z,11.50
2023-02-11T02:05:27.429Z,13.50
2023-02-11T02:08:03.285Z,12.20
2023-02-11T02:10:32.451Z,13.40
2023-02-11T02:13:01.307Z,14.60
2023-02-11T02:15:32.576Z,14.40
2023-02-11T02:18:20.583Z,15.20
2023-02-11T02:21:28.240Z,16.00
2023-02-11T02:24:14.324Z,12.20
2023-02-11T02:27:04.005Z,14.00
2023-02-11T02:30:04.473Z,15.30
2023-02-11T02:32:44.892Z,13.00
2023-02-11T02:35:22.383Z,8.20
2023-02-11T02:37:54.924Z,13.80
2023-02-11T02:40:25.881Z,14.30
2023-02-11T02:42:56.214Z,12.80
2023-02-11T02:45:25.163Z,16.90
2023-02-11T02:47:53.714Z,9.90
2023-02-11T02:50:29.505Z,14.50
2023-02-11T02:53:04.936Z,11.30
2023-02-11T02:55:44.208Z,13.10
2023-02-11T02:58:30.194Z,11.10
2023-02-11T03:01:07.382Z,12.20
2023-02-11T03:03:42.587Z,9.50
2023-02-11T03:06:15.273Z,13.10
2023-02-11T03:08:46.156Z,11.50
2023-02-11T03:11:17.432Z,12.50
2023-02-11T03:13:47.377Z,10.50
2023-02-11T03:16:18.810Z,10.20
2023-02-11T03:18:51.256Z,13.90
2023-02-11T03:21:20.915Z,11.10
2023-02-11T03:23:52.948Z,12.90
2023-02-11T03:26:25.868Z,12.60
2023-02-11T03:29:00.955Z,13.80
2023-02-11T03:31:33.871Z,11.60
2023-02-11T03:34:09.557Z,10.90
2023-02-11T03:36:45.475Z,8.50
2023-02-11T03:39:16.365Z,11.50
2023-02-11T03:41:46.302Z,6.20
2023-02-11T03:44:18.322Z,12.90
2023-02-11T03:46:50.699Z,10.40
2023-02-11T03:49:21.991Z,11.50
2023-02-11T03:51:52.216Z,12.60
2023-02-11T03:54:26.381Z,11.00
2023-02-11T03:59:23.631Z,6.40
2023-02-11T04:01:52.775Z,7.50
2023-02-11T04:04:21.546Z,9.70
2023-02-11T04:06:50.140Z,12.10
2023-02-11T04:09:18.901Z,12.60
2023-02-11T04:11:47.412Z,12.60
2023-02-11T04:14:15.955Z,13.70
2023-02-11T04:16:44.645Z,11.20
2023-02-11T04:19:13.292Z,7.20
2023-02-11T04:21:41.722Z,15.00
2023-02-11T04:24:10.252Z,11.80
2023-02-11T04:26:38.737Z,14.80
2023-02-11T04:29:07.423Z,9.90
2023-02-11T04:31:36.307Z,12.10
2023-02-11T04:34:05.002Z,14.00
2023-02-11T04:36:33.648Z,16.70
2023-02-11T04:39:02.126Z,10.90
2023-02-11T04:41:30.936Z,13.30
2023-02-11T04:43:59.524Z,13.30
2023-02-11T04:46:28.288Z,13.30
2023-02-11T04:48:57.040Z,14.50
2023-02-11T04:51:25.681Z,16.20
2023-02-11T04:53:54.226Z,14.80
2023-02-11T04:56:22.790Z,14.80
2023-02-11T04:58:51.616Z,14.00
2023-02-11T05:01:20.322Z,12.40
2023-02-11T05:03:49.978Z,12.60
2023-02-11T05:06:19.178Z,15.20
2023-02-11T05:08:48.459Z,16.80
2023-02-11T05:11:19.965Z,18.00
2023-02-11T05:13:48.665Z,12.30
2023-02-11T05:16:17.810Z,13.30
2023-02-11T05:18:46.379Z,12.70
2023-02-11T05:21:16.562Z,15.40
2023-02-11T05:23:45.673Z,17.40
2023-02-11T05:26:14.766Z,18.30
2023-02-11T05:28:43.913Z,13.90
2023-02-11T05:31:14.375Z,17.10
2023-02-11T05:33:43.393Z,16.50
2023-02-11T05:36:13.831Z,17.50
2023-02-11T05:38:42.841Z,11.80
2023-02-11T05:41:11.984Z,18.70
2023-02-11T05:43:40.508Z,18.70
2023-02-11T05:46:09.111Z,14.50
2023-02-11T05:48:37.826Z,18.70
2023-02-11T05:51:06.478Z,16.00
2023-02-11T05:53:34.886Z,17.80
2023-02-11T05:56:03.651Z,14.00
2023-02-11T05:58:33.095Z,13.10
2023-02-11T06:01:01.538Z,16.20
2023-02-11T06:03:30.007Z,13.80
2023-02-11T06:05:58.438Z,13.80
2023-02-11T06:08:27.073Z,11.10
2023-02-11T06:10:55.521Z,18.60
2023-02-11T06:13:23.957Z,10.40
2023-02-11T06:15:57.657Z,19.50
2023-02-11T06:18:26.274Z,16.60
2023-02-11T06:20:54.807Z,12.20
2023-02-11T06:23:23.536Z,11.50
2023-02-11T06:25:53.160Z,14.20
2023-02-11T06:28:21.826Z,13.50
2023-02-11T06:30:50.362Z,16.30
2023-02-11T06:33:18.962Z,13.60
2023-02-11T06:35:47.529Z,17.50
2023-02-11T06:38:15.983Z,21.60
2023-02-11T06:40:49.904Z,14.60
2023-02-11T06:43:18.714Z,14.10
2023-02-11T06:45:54.018Z,14.30
2023-02-11T06:48:22.912Z,16.70
2023-02-11T06:50:51.581Z,18.80
2023-02-11T06:53:20.044Z,14.70
2023-02-11T06:55:51.451Z,15.10
2023-02-11T06:58:20.443Z,21.30
2023-02-11T07:00:49.164Z,28.70
2023-02-11T07:03:17.999Z,14.90
2023-02-11T07:05:46.522Z,18.80
2023-02-11T07:08:14.968Z,17.40
2023-02-11T07:10:43.557Z,22.00
2023-02-11T07:13:12.061Z,12.80
2023-02-11T07:15:40.519Z,19.70
2023-02-11T07:18:08.988Z,20.00
2023-02-11T07:20:38.541Z,16.50
2023-02-11T07:23:07.270Z,17.80
2023-02-11T07:25:36.257Z,15.60
2023-02-11T07:28:05.459Z,21.90
2023-02-11T07:30:34.087Z,18.80
2023-02-11T07:33:02.585Z,25.80
2023-02-11T07:35:31.060Z,16.20
2023-02-11T07:37:59.469Z,21.90
2023-02-11T07:40:28.106Z,21.10
2023-02-11T07:42:56.683Z,19.20
2023-02-11T07:45:25.075Z,26.90
2023-02-11T07:47:53.613Z,17.20
2023-02-11T07:50:21.986Z,19.90
2023-02-11T07:52:50.486Z,26.10
2023-02-11T07:55:19.016Z,25.10
2023-02-11T07:57:47.398Z,18.30
2023-02-11T08:00:20.748Z,19.80
2023-02-11T08:02:49.713Z,28.80
2023-02-11T08:05:18.720Z,19.60
2023-02-11T08:07:47.245Z,19.60
2023-02-11T08:10:16.013Z,21.10
2023-02-11T08:12:44.470Z,24.40
2023-02-11T08:15:14.100Z,20.30
2023-02-11T08:17:42.731Z,25.90
2023-02-11T08:20:12.589Z,16.80
2023-02-11T08:22:41.145Z,27.50
2023-02-11T08:25:09.725Z,24.20
2023-02-11T08:27:38.957Z,21.60
2023-02-11T08:30:09.433Z,26.60
2023-02-11T08:32:39.073Z,36.70
2023-02-11T08:35:08.857Z,16.50
2023-02-11T08:37:37.378Z,17.90
2023-02-11T08:40:07.961Z,27.80
2023-02-11T08:42:36.553Z,29.60
2023-02-11T08:45:06.950Z,27.50
2023-02-11T08:47:35.654Z,27.10
2023-02-11T08:50:04.281Z,24.80
2023-02-11T08:52:32.726Z,26.80
2023-02-11T08:55:01.350Z,26.10
2023-02-11T08:57:30.122Z,20.90
2023-02-11T08:59:58.545Z,23.30
2023-02-11T09:02:27.259Z,23.10
2023-02-11T09:04:55.692Z,39.40
2023-02-11T09:07:24.750Z,24.70
2023-02-11T09:09:53.433Z,18.70
2023-02-11T09:12:21.840Z,23.00
2023-02-11T09:14:50.352Z,24.20
2023-02-11T09:17:19.165Z,30.00
2023-02-11T09:19:48.405Z,20.80
2023-02-11T09:22:17.199Z,25.30
2023-02-11T09:24:45.868Z,18.60
2023-02-11T09:27:14.276Z,18.30
2023-02-11T09:29:43.041Z,19.00
2023-02-11T09:32:11.788Z,26.30
2023-02-11T09:34:40.456Z,24.30
2023-02-11T09:37:08.971Z,25.10
2023-02-11T09:39:37.483Z,27.50
2023-02-11T09:42:15.984Z,22.80
2023-02-11T09:44:45.551Z,24.40
2023-02-11T09:47:23.262Z,23.80
2023-02-11T09:49:53.921Z,31.80
2023-02-11T09:52:29.632Z,22.70
2023-02-11T09:54:59.968Z,23.90
2023-02-11T09:57:32.682Z,30.40
2023-02-11T10:00:01.646Z,28.20
2023-02-11T10:02:39.231Z,26.90
2023-02-11T10:05:21.659Z,22.50
2023-02-11T10:07:58.876Z,23.70
2023-02-11T10:10:39.463Z,19.20
2023-02-11T10:13:24.971Z,20.80
2023-02-11T10:16:02.688Z,21.40
2023-02-11T10:18:44.737Z,22.90
2023-02-11T10:21:19.839Z,26.40
2023-02-11T10:23:51.449Z,24.60
2023-02-11T10:26:20.740Z,24.20
2023-02-11T10:28:51.004Z,22.80
2023-02-11T10:31:22.801Z,22.40
2023-02-11T10:33:55.410Z,21.50
2023-02-11T10:36:28.105Z,25.00
2023-02-11T10:38:56.596Z,22.40
2023-02-11T10:41:31.935Z,19.10
2023-02-11T10:44:00.937Z,27.50
2023-02-11T10:46:33.385Z,17.20
2023-02-11T10:49:02.833Z,22.70
2023-02-11T10:51:33.694Z,33.70
2023-02-11T10:54:18.822Z,27.70
2023-02-11T10:56:49.619Z,32.20
2023-02-11T10:59:24.643Z,19.70
2023-02-11T11:01:54.472Z,22.30
2023-02-11T11:04:40.376Z,35.10
2023-02-11T11:07:18.767Z,25.90
2023-02-11T11:09:50.474Z,19.60
2023-02-11T11:12:42.095Z,38.70
2023-02-11T11:15:21.402Z,21.00
2023-02-11T11:17:50.603Z,30.80
2023-02-11T11:20:26.712Z,58.10
2023-02-11T11:23:10.969Z,23.90
2023-02-11T11:25:43.064Z,19.10
2023-02-11T11:28:22.734Z,45.10
2023-02-11T11:30:53.580Z,27.70
2023-02-11T11:33:26.250Z,31.40
2023-02-11T11:35:59.268Z,25.70
2023-02-11T11:38:29.159Z,30.00
2023-02-11T11:41:22.878Z,29.10
2023-02-11T11:44:00.058Z,42.00
2023-02-11T11:46:31.571Z,22.80
2023-02-11T11:49:07.006Z,28.10
2023-02-11T11:51:38.589Z,39.30
2023-02-11T11:54:11.584Z,28.40
2023-02-11T11:56:45.855Z,26.60
2023-02-11T11:59:16.178Z,27.50
2023-02-11T12:01:56.861Z,34.60
2023-02-11T12:04:53.348Z,44.00
2023-02-11T12:07:30.976Z,24.00
2023-02-11T12:10:23.002Z,26.50
2023-02-11T12:12:55.684Z,19.20
2023-02-11T12:15:32.773Z,41.70
2023-02-11T12:18:09.254Z,29.80
2023-02-11T12:20:49.693Z,33.80
2023-02-11T12:23:41.572Z,30.20
2023-02-11T12:26:14.793Z,51.70
2023-02-11T12:28:53.872Z,22.10
2023-02-11T12:31:30.151Z,35.30
2023-02-11T12:34:16.111Z,23.20
2023-02-11T12:36:55.079Z,29.70
2023-02-11T12:39:33.761Z,33.10
2023-02-11T12:42:36.712Z,29.60
2023-02-11T12:45:20.471Z,34.70
2023-02-11T12:48:01.364Z,45.80
2023-02-11T12:50:36.076Z,35.90
2023-02-11T12:53:24.605Z,53.30
2023-02-11T12:55:57.715Z,38.20
2023-02-11T12:58:42.929Z,31.70
2023-02-11T13:01:18.403Z,42.40
2023-02-11T13:03:50.997Z,43.90
2023-02-11T13:06:22.244Z,42.50
2023-02-11T13:08:53.633Z,43.40
2023-02-11T13:11:24.547Z,43.90
2023-02-11T13:13:55.431Z,29.80
2023-02-11T13:16:36.896Z,53.20
2023-02-11T13:19:14.964Z,54.30
2023-02-11T13:21:53.540Z,31.40
2023-02-11T13:24:27.254Z,51.10
2023-02-11T13:27:01.531Z,55.80
2023-02-11T13:29:39.098Z,34.10
2023-02-11T13:32:10.061Z,33.00
2023-02-11T13:35:16.302Z,24.40
2023-02-11T13:37:49.478Z,36.60
2023-02-11T13:40:23.641Z,35.40
2023-02-11T13:45:30.432Z,31.00
2023-02-11T13:48:00.147Z,58.00
2023-02-11T13:50:29.798Z,33.80
2023-02-11T13:52:59.777Z,42.00
2023-02-11T13:55:28.858Z,51.30
2023-02-11T13:58:36.544Z,49.40
2023-02-11T14:01:05.623Z,53.60
2023-02-11T14:03:57.434Z,42.70
2023-02-11T14:06:46.308Z,30.60
2023-02-11T14:09:44.347Z,29.60
2023-02-11T14:12:34.322Z,31.80
2023-02-11T14:15:27.365Z,43.20
2023-02-11T14:17:55.843Z,39.90
2023-02-11T14:20:44.714Z,33.10
2023-02-11T14:23:26.741Z,43.20
2023-02-11T14:26:31.975Z,49.60
2023-02-11T14:29:16.946Z,61.90
2023-02-11T14:31:51.786Z,49.30
2023-02-11T14:34:39.884Z,54.40
2023-02-11T14:37:18.794Z,43.40
2023-02-11T14:40:03.045Z,47.50
2023-02-11T14:45:04.403Z,30.70
2023-02-11T14:47:36.785Z,44.30
2023-02-11T14:50:09.642Z,40.20
2023-02-11T14:52:38.893Z,37.40
2023-02-11T14:55:17.776Z,44.30
2023-02-11T14:57:49.014Z,40.70
2023-02-11T15:00:21.318Z,34.50
2023-02-11T15:02:50.268Z,30.80
2023-02-11T15:05:21.876Z,36.50
2023-02-11T15:07:51.793Z,38.80
2023-02-11T15:10:28.690Z,31.30
2023-02-11T15:12:58.639Z,31.30
2023-02-11T15:15:27.163Z,43.70
2023-02-11T15:17:56.061Z,25.30
2023-02-11T15:20:27.368Z,39.10
2023-02-11T15:22:58.818Z,43.40
2023-02-11T15:25:27.738Z,22.50
2023-02-11T15:27:57.375Z,34.70
2023-02-11T15:30:29.648Z,32.20
2023-02-11T15:32:59.732Z,30.70
2023-02-11T15:35:29.878Z,38.70
2023-02-11T15:37:59.371Z,29.00
2023-02-11T15:40:32.462Z,40.20
2023-02-11T15:43:02.561Z,27.80
2023-02-11T15:45:32.741Z,28.80
2023-02-11T15:48:06.614Z,39.20
2023-02-11T15:50:36.598Z,22.50
2023-02-11T15:53:18.073Z,22.50
2023-02-11T15:55:48.916Z,24.50
2023-02-11T15:58:17.632Z,27.80
2023-02-11T16:00:48.783Z,27.90
2023-02-11T16:03:27.301Z,40.50
2023-02-11T16:05:55.925Z,29.90
2023-02-11T16:08:28.688Z,22.80
2023-02-11T16:10:59.184Z,24.50
2023-02-11T16:13:30.084Z,29.50
2023-02-11T16:16:01.817Z,23.40
2023-02-11T16:18:39.811Z,26.90
2023-02-11T16:21:16.126Z,27.10
2023-02-11T16:23:51.286Z,23.00
2023-02-11T16:26:26.215Z,24.40
2023-02-11T16:29:03.819Z,31.40
2023-02-11T16:31:37.079Z,23.80
2023-02-11T16:36:36.431Z,21.40
2023-02-11T16:39:05.087Z,19.40
2023-02-11T16:41:33.787Z,25.30
2023-02-11T16:44:02.403Z,26.80
2023-02-11T16:46:34.326Z,21.70
2023-02-11T16:49:10.100Z,14.50
2023-02-11T16:51:40.729Z,20.20
2023-02-11T16:54:14.056Z,21.70
2023-02-11T16:56:43.098Z,26.70
2023-02-11T16:59:11.953Z,22.00
2023-02-11T17:01:41.472Z,18.40
2023-02-11T17:04:23.013Z,16.30
2023-02-11T17:06:51.517Z,24.90
2023-02-11T17:09:22.063Z,18.50
2023-02-11T17:11:50.827Z,15.40
2023-02-11T17:14:19.834Z,17.40
2023-02-11T17:16:48.943Z,20.10
2023-02-11T17:19:20.836Z,18.40
2023-02-11T17:21:53.887Z,22.80
2023-02-11T17:24:22.796Z,21.40
2023-02-11T17:26:51.792Z,19.20
2023-02-11T17:29:21.855Z,16.80
2023-02-11T17:31:51.698Z,13.70
2023-02-11T17:34:21.223Z,16.80
2023-02-11T17:36:49.679Z,17.60
2023-02-11T17:39:20.528Z,18.40
2023-02-11T17:41:49.938Z,13.10
2023-02-11T17:44:18.464Z,17.20
2023-02-11T17:46:47.116Z,17.00
2023-02-11T17:49:16.177Z,14.20
2023-02-11T17:51:44.667Z,12.90
2023-02-11T17:54:15.022Z,19.00
2023-02-11T17:56:44.064Z,11.10
2023-02-11T17:59:13.376Z,13.70
2023-02-11T18:01:42.731Z,13.80
2023-02-11T18:04:14.285Z,15.10
2023-02-11T18:06:42.945Z,13.50
2023-02-11T18:09:11.952Z,12.00
2023-02-11T18:11:41.366Z,11.00
2023-02-11T18:14:10.751Z,16.10
2023-02-11T18:16:42.395Z,11.80
2023-02-11T18:19:12.364Z,17.80
2023-02-11T18:21:43.005Z,19.50
2023-02-11T18:24:11.650Z,16.60
2023-02-11T18:26:41.206Z,14.70
2023-02-11T18:29:10.818Z,14.50
2023-02-11T18:31:40.373Z,16.80
2023-02-11T18:34:12.871Z,9.10
2023-02-11T18:36:42.445Z,9.80
2023-02-11T18:39:11.014Z,11.00
2023-02-11T18:41:41.730Z,14.00
2023-02-11T18:44:13.572Z,15.00
2023-02-11T18:46:41.975Z,12.70
2023-02-11T18:49:12.582Z,10.50
2023-02-11T18:51:41.293Z,13.00
2023-02-11T18:54:10.239Z,13.00
2023-02-11T18:56:38.768Z,16.00
2023-02-11T18:59:09.517Z,9.30
2023-02-11T19:01:40.193Z,12.70
2023-02-11T19:04:08.995Z,11.90
2023-02-11T19:06:38.089Z,8.60
2023-02-11T19:09:09.778Z,12.90
2023-02-11T19:11:53.696Z,10.60
2023-02-11T19:14:23.811Z,9.30
2023-02-11T19:16:54.632Z,10.60
2023-02-11T19:19:24.849Z,12.60
2023-02-11T19:21:54.411Z,13.20
2023-02-11T19:24:24.193Z,10.40
2023-02-11T19:26:55.424Z,11.60
2023-02-11T19:29:24.084Z,7.40
2023-02-11T19:31:53.076Z,12.80
2023-02-11T19:34:22.220Z,10.10
2023-02-11T19:36:50.732Z,12.30
2023-02-11T19:39:19.631Z,9.60
2023-02-11T19:41:48.055Z,11.50
2023-02-11T19:44:16.471Z,8.70
2023-02-11T19:46:45.444Z,11.60
2023-02-11T19:49:16.174Z,10.60
2023-02-11T19:51:44.648Z,9.60
2023-02-11T19:54:14.109Z,9.20
2023-02-11T19:56:44.182Z,8.40
2023-02-11T19:59:12.556Z,11.30
2023-02-11T20:01:41.582Z,10.60
2023-02-11T20:04:10.092Z,9.40
2023-02-11T20:06:38.676Z,8.90
2023-02-11T20:09:11.038Z,10.30
2023-02-11T20:11:39.886Z,11.60
2023-02-11T20:14:10.007Z,9.20
2023-02-11T20:16:48.079Z,8.70
2023-02-11T20:19:19.382Z,9.50
2023-02-11T20:21:50.993Z,8.50
2023-02-11T20:24:21.108Z,7.50
2023-02-11T20:26:54.841Z,10.60
2023-02-11T20:29:25.163Z,7.50
2023-02-11T20:31:54.568Z,11.00
2023-02-11T20:34:24.475Z,12.00
2023-02-11T20:36:53.673Z,9.40
2023-02-11T20:39:22.851Z,8.30
2023-02-11T20:41:56.019Z,8.90
2023-02-11T20:44:25.574Z,10.00
2023-02-11T20:46:54.996Z,7.20
2023-02-11T20:49:25.096Z,9.60
2023-02-11T20:51:54.115Z,6.60
2023-02-11T20:54:23.849Z,11.20
2023-02-11T20:56:54.900Z,9.70
2023-02-11T20:59:24.856Z,7.60
2023-02-11T21:01:56.072Z,7.70
2023-02-11T21:04:28.849Z,9.40
2023-02-11T21:06:59.153Z,8.70
2023-02-11T21:09:30.120Z,9.20
2023-02-11T21:11:59.170Z,9.20
2023-02-11T21:14:28.026Z,9.80
2023-02-11T21:16:56.902Z,10.40
2023-02-11T21:19:25.437Z,10.10
2023-02-11T21:21:54.802Z,8.20
2023-02-11T21:24:23.668Z,5.60
2023-02-11T21:26:52.255Z,4.70
2023-02-11T21:29:20.819Z,3.60
2023-02-11T21:31:50.769Z,2.80
2023-02-11T21:34:20.138Z,2.70
2023-02-11T21:36:50.585Z,1.70
2023-02-11T21:39:22.537Z,1.90
2023-02-11T21:41:51.610Z,2.00
2023-02-11T21:44:20.602Z,1.80
2023-02-11T21:46:49.202Z,1.80
2023-02-11T21:49:19.105Z,1.40
2023-02-11T21:51:47.976Z,2.00
2023-02-11T21:54:18.159Z,1.90
2023-02-11T21:56:49.415Z,1.70
2023-02-11T21:59:17.979Z,1.60
2023-02-11T22:01:46.958Z,1.20
2023-02-11T22:04:16.437Z,1.30
2023-02-11T22:06:44.956Z,1.00
2023-02-11T22:09:13.494Z,1.80
2023-02-11T22:11:41.971Z,1.50
2023-02-11T22:14:10.425Z,1.40
2023-02-11T22:16:39.357Z,1.50
2023-02-11T22:19:08.982Z,1.50
2023-02-11T22:21:37.548Z,1.20
2023-02-11T22:24:07.044Z,1.10
2023-02-11T22:26:35.605Z,1.10
2023-02-11T22:29:04.077Z,1.60
2023-02-11T22:31:34.325Z,1.50
2023-02-11T22:34:03.765Z,1.50
2023-02-11T22:36:34.404Z,1.20
2023-02-11T22:39:04.071Z,1.20
2023-02-11T22:41:32.647Z,1.10
2023-02-11T22:44:01.171Z,0.90
2023-02-11T22:46:31.883Z,0.90
2023-02-11T22:49:00.414Z,0.80
2023-02-11T22:51:30.034Z,1.40
2023-02-11T22:54:00.031Z,0.90
2023-02-11T22:56:30.326Z,1.40
2023-02-11T22:59:00.463Z,0.80
2023-02-11T23:01:29.823Z,0.70
2023-02-11T23:04:00.270Z,1.30
2023-02-11T23:06:29.224Z,1.20
2023-02-11T23:08:58.110Z,0.50
2023-02-11T23:11:28.777Z,0.70
2023-02-11T23:13:58.110Z,0.60
2023-02-11T23:16:30.337Z,2.20
2023-02-11T23:19:00.924Z,0.80
2023-02-11T23:21:31.584Z,0.80
2023-02-11T23:24:01.837Z,0.70
2023-02-11T23:26:30.706Z,0.70
2023-02-11T23:28:59.825Z,0.60
2023-02-11T23:31:29.929Z,0.80
2023-02-11T23:33:58.632Z,0.60
2023-02-11T23:36:27.616Z,0.60
2023-02-11T23:38:56.172Z,1.00
2023-02-11T23:41:25.107Z,1.10
2023-02-11T23:43:55.103Z,1.00
2023-02-11T23:46:24.803Z,0.90
2023-02-11T23:48:53.740Z,0.70
2023-02-11T23:51:23.477Z,0.80
2023-02-11T23:53:53.612Z,1.10
2023-02-11T23:56:23.737Z,1.00
2023-02-11T23:58:53.822Z,0.60
